createdAt,value
2023-02-11T00:02:31.552Z,102409.78
2023-02-11T00:05:33.284Z,102409.88
2023-02-11T00:08:36.346Z,102402.09
2023-02-11T00:11:38.285Z,102401.53
2023-02-11T00:14:40.087Z,102396.03
2023-02-11T00:17:41.945Z,102401.44
2023-02-11T00:20:44.251Z,102405.50
2023-02-11T00:23:47.619Z,102402.78
2023-02-11T00:26:49.275Z,102415.31
2023-02-11T00:29:51.071Z,102414.13
2023-02-11T00:32:53.228Z,102407.78
2023-02-11T00:35:55.776Z,102407.38
2023-02-11T00:38:59.594Z,102405.34
2023-02-11T00:42:02.596Z,102405.09
2023-02-11T00:45:04.809Z,102402.06
2023-02-11T00:48:06.696Z,102401.63
2023-02-11T00:51:08.990Z,102397.38
2023-02-11T00:54:12.134Z,102394.94
2023-02-11T00:57:13.994Z,102404.03
2023-02-11T01:00:16.377Z,102406.53
2023-02-11T01:03:19.397Z,102399.66
2023-02-11T01:06:21.135Z,102412.13
2023-02-11T01:09:24.243Z,102405.09
2023-02-11T01:12:25.989Z,102407.41
2023-02-11T01:15:28.291Z,102390.38
2023-02-11T01:18:31.097Z,102385.22
2023-02-11T01:21:32.721Z,102389.78
2023-02-11T01:24:35.993Z,102383.28
2023-02-11T01:27:38.076Z,102385.63
2023-02-11T01:30:39.857Z,102385.91
2023-02-11T01:33:42.040Z,102381.53
2023-02-11T01:36:44.510Z,102379.22
2023-02-11T01:39:47.631Z,102365.25
2023-02-11T01:42:51.095Z,102357.44
2023-02-11T01:46:00.538Z,102367.69
2023-02-11T01:49:06.830Z,102358.94
2023-02-11T01:52:12.362Z,102350.69
2023-02-11T01:55:34.998Z,102349.00
2023-02-11T01:58:41.191Z,102353.53
2023-02-11T02:01:48.378Z,102348.03
2023-02-11T02:04:55.209Z,102332.47
2023-02-11T02:08:03.694Z,102327.34
2023-02-11T02:11:07.388Z,102321.97
2023-02-11T02:14:11.928Z,102317.25
2023-02-11T02:17:26.330Z,102326.25
2023-02-11T02:21:03.069Z,102325.81
2023-02-11T02:24:27.569Z,102318.03
2023-02-11T02:27:50.554Z,102316.13
2023-02-11T02:31:23.896Z,102309.06
2023-02-11T02:34:34.300Z,102302.72
2023-02-11T02:37:41.884Z,102303.41
2023-02-11T02:40:49.194Z,102302.47
2023-02-11T02:43:57.789Z,102302.25
2023-02-11T02:46:59.542Z,102289.25
2023-02-11T02:50:03.674Z,102292.56
2023-02-11T02:53:20.133Z,102288.97
2023-02-11T02:56:29.720Z,102279.31
2023-02-11T02:59:46.487Z,102286.34
2023-02-11T03:03:04.204Z,102284.38
2023-02-11T03:06:12.065Z,102292.44
2023-02-11T03:09:18.919Z,102309.38
2023-02-11T03:12:22.741Z,102308.16
2023-02-11T03:15:29.022Z,102302.06
2023-02-11T03:18:34.893Z,102304.84
2023-02-11T03:21:39.243Z,102314.75
2023-02-11T03:24:41.799Z,102324.63
2023-02-11T03:27:47.258Z,102326.81
2023-02-11T03:30:55.924Z,102319.22
2023-02-11T03:34:04.562Z,102308.66
2023-02-11T03:37:13.058Z,102306.06
2023-02-11T03:40:18.929Z,102300.69
2023-02-11T03:43:23.032Z,102290.81
2023-02-11T03:46:30.502Z,102302.13
2023-02-11T03:49:33.465Z,102286.34
2023-02-11T03:52:38.170Z,102289.84
2023-02-11T03:55:42.200Z,102291.47
2023-02-11T03:58:44.434Z,102291.47
2023-02-11T04:01:46.264Z,102281.50
2023-02-11T04:04:48.090Z,102277.25
2023-02-11T04:07:51.061Z,102275.88
2023-02-11T04:10:52.675Z,102261.00
2023-02-11T04:13:54.274Z,102259.34
2023-02-11T04:16:55.869Z,102255.06
2023-02-11T04:19:57.476Z,102252.69
2023-02-11T04:23:00.434Z,102229.34
2023-02-11T04:26:02.087Z,102231.44
2023-02-11T04:29:03.829Z,102236.38
2023-02-11T04:32:05.583Z,102216.81
2023-02-11T04:35:07.785Z,102223.81
2023-02-11T04:38:10.764Z,102224.13
2023-02-11T04:41:12.464Z,102233.00
2023-02-11T04:44:14.102Z,102235.03
2023-02-11T04:47:15.850Z,102248.03
2023-02-11T04:50:17.697Z,102258.22
2023-02-11T04:53:20.845Z,102252.03
2023-02-11T04:56:22.515Z,102252.47
2023-02-11T04:59:24.210Z,102253.22
2023-02-11T05:02:25.803Z,102263.31
2023-02-11T05:05:27.441Z,102262.78
2023-02-11T05:08:30.742Z,102273.94
2023-02-11T05:11:32.471Z,102276.81
2023-02-11T05:14:34.215Z,102273.31
2023-02-11T05:17:35.812Z,102276.41
2023-02-11T05:20:37.857Z,102267.13
2023-02-11T05:23:41.164Z,102248.28
2023-02-11T05:26:42.766Z,102242.84
2023-02-11T05:29:44.461Z,102247.81
2023-02-11T05:32:46.072Z,102236.19
2023-02-11T05:35:47.817Z,102230.75
2023-02-11T05:38:50.937Z,102231.41
2023-02-11T05:41:52.536Z,102236.63
2023-02-11T05:44:54.115Z,102243.16
2023-02-11T05:47:55.733Z,102248.34
2023-02-11T05:50:57.418Z,102246.44
2023-02-11T05:54:00.441Z,102237.47
2023-02-11T05:57:02.044Z,102229.13
2023-02-11T06:00:05.237Z,102242.06
2023-02-11T06:03:14.028Z,102239.09
2023-02-11T06:06:15.766Z,102236.13
2023-02-11T06:09:18.714Z,102244.63
2023-02-11T06:12:20.427Z,102233.19
2023-02-11T06:15:22.111Z,102229.38
2023-02-11T06:18:23.922Z,102218.78
2023-02-11T06:21:36.374Z,102225.63
2023-02-11T06:25:00.293Z,102242.31
2023-02-11T06:28:03.351Z,102247.47
2023-02-11T06:31:09.767Z,102262.34
2023-02-11T06:34:11.639Z,102248.97
2023-02-11T06:37:13.310Z,102246.84
2023-02-11T06:40:16.319Z,102247.78
2023-02-11T06:43:18.036Z,102241.88
2023-02-11T06:46:19.823Z,102240.06
2023-02-11T06:49:21.525Z,102259.88
2023-02-11T06:52:23.209Z,102262.53
2023-02-11T06:55:26.248Z,102261.84
2023-02-11T06:58:27.870Z,102259.28
2023-02-11T07:01:29.642Z,102257.38
2023-02-11T07:04:31.409Z,102258.59
2023-02-11T07:07:34.371Z,102248.69
2023-02-11T07:10:37.530Z,102247.97
2023-02-11T07:13:39.395Z,102256.00
2023-02-11T07:16:41.147Z,102252.66
2023-02-11T07:19:42.824Z,102256.44
2023-02-11T07:22:44.507Z,102258.31
2023-02-11T07:25:47.484Z,102256.72
2023-02-11T07:28:50.433Z,102248.94
2023-02-11T07:31:52.042Z,102257.72
2023-02-11T07:34:53.785Z,102269.75
2023-02-11T07:37:55.418Z,102256.13
2023-02-11T07:41:01.751Z,102263.91
2023-02-11T07:44:03.796Z,102270.78
2023-02-11T07:47:05.579Z,102274.38
2023-02-11T07:50:07.681Z,102264.00
2023-02-11T07:53:09.375Z,102275.09
2023-02-11T07:56:13.663Z,102280.31
2023-02-11T07:59:15.345Z,102265.72
2023-02-11T08:02:17.036Z,102261.72
2023-02-11T08:05:19.057Z,102260.31
2023-02-11T08:08:20.672Z,102258.63
2023-02-11T08:11:25.238Z,102265.97
2023-02-11T08:14:27.248Z,102267.91
2023-02-11T08:17:28.886Z,102274.75
2023-02-11T08:20:30.654Z,102271.72
2023-02-11T08:23:32.412Z,102270.56
2023-02-11T08:26:35.566Z,102278.81
2023-02-11T08:29:37.285Z,102271.97
2023-02-11T08:32:39.436Z,102263.50
2023-02-11T08:35:41.366Z,102265.38
2023-02-11T08:38:43.448Z,102263.25
2023-02-11T08:41:48.822Z,102270.09
2023-02-11T08:44:50.674Z,102267.06
2023-02-11T08:47:52.352Z,102269.66
2023-02-11T08:50:54.318Z,102279.59
2023-02-11T08:53:56.531Z,102292.34
2023-02-11T08:57:01.760Z,102288.78
2023-02-11T09:00:03.793Z,102295.41
2023-02-11T09:03:05.504Z,102298.03
2023-02-11T09:06:08.789Z,102296.63
2023-02-11T09:09:13.420Z,102291.47
2023-02-11T09:12:16.406Z,102308.47
2023-02-11T09:15:18.181Z,102316.03
2023-02-11T09:18:19.791Z,102309.16
2023-02-11T09:21:21.520Z,102304.22
2023-02-11T09:24:23.182Z,102307.03
2023-02-11T09:27:26.271Z,102306.31
2023-02-11T09:30:27.980Z,102303.03
2023-02-11T09:33:29.679Z,102310.34
2023-02-11T09:36:33.973Z,102314.16
2023-02-11T09:39:35.645Z,102313.44
2023-02-11T09:42:45.193Z,102312.97
2023-02-11T09:45:47.447Z,102311.78
2023-02-11T09:48:53.124Z,102319.56
2023-02-11T09:52:00.292Z,102311.50
2023-02-11T09:55:04.798Z,102311.00
2023-02-11T09:58:13.644Z,102308.41
2023-02-11T10:01:24.743Z,102300.84
2023-02-11T10:04:45.267Z,102293.47
2023-02-11T10:07:54.741Z,102305.09
2023-02-11T10:11:04.329Z,102305.97
2023-02-11T10:14:23.389Z,102312.66
2023-02-11T10:17:35.948Z,102309.75
2023-02-11T10:20:38.792Z,102313.97
2023-02-11T10:23:45.172Z,102318.69
2023-02-11T10:26:46.975Z,102309.25
2023-02-11T10:29:53.466Z,102315.31
2023-02-11T10:33:00.836Z,102312.75
2023-02-11T10:36:03.601Z,102309.63
2023-02-11T10:39:12.923Z,102304.97
2023-02-11T10:42:14.837Z,102303.72
2023-02-11T10:45:24.940Z,102303.63
2023-02-11T10:48:39.249Z,102295.94
2023-02-11T10:51:40.924Z,102304.88
2023-02-11T10:54:55.084Z,102307.63
2023-02-11T10:58:00.418Z,102308.75
2023-02-11T11:01:08.047Z,102309.41
2023-02-11T11:04:37.761Z,102308.13
2023-02-11T11:07:39.484Z,102302.06
2023-02-11T11:10:43.702Z,102312.63
2023-02-11T11:13:58.108Z,102306.44
2023-02-11T11:17:01.112Z,102309.78
2023-02-11T11:20:20.625Z,102307.69
2023-02-11T11:23:24.547Z,102308.31
2023-02-11T11:26:28.142Z,102315.44
2023-02-11T11:29:34.752Z,102316.69
2023-02-11T11:32:39.775Z,102306.59
2023-02-11T11:35:41.366Z,102309.94
2023-02-11T11:38:46.477Z,102310.75
2023-02-11T11:41:52.398Z,102309.59
2023-02-11T11:44:59.106Z,102301.94
2023-02-11T11:48:06.732Z,102302.47
2023-02-11T11:51:10.803Z,102300.44
2023-02-11T11:54:15.381Z,102283.66
2023-02-11T11:57:21.745Z,102280.75
2023-02-11T12:00:28.189Z,102280.38
2023-02-11T12:04:01.288Z,102279.03
2023-02-11T12:07:18.896Z,102278.44
2023-02-11T12:10:52.455Z,102270.47
2023-02-11T12:14:04.393Z,102281.94
2023-02-11T12:17:14.729Z,102282.41
2023-02-11T12:20:26.123Z,102285.44
2023-02-11T12:23:38.592Z,102280.03
2023-02-11T12:26:50.579Z,102280.50
2023-02-11T12:30:04.167Z,102281.09
2023-02-11T12:33:15.989Z,102276.16
2023-02-11T12:36:33.967Z,102280.59
2023-02-11T12:39:42.780Z,102277.88
2023-02-11T12:43:16.400Z,102283.13
2023-02-11T12:46:33.883Z,102276.50
2023-02-11T12:49:55.622Z,102271.91
2023-02-11T12:53:15.045Z,102269.59
2023-02-11T12:56:22.536Z,102279.63
2023-02-11T12:59:35.079Z,102268.06
2023-02-11T13:02:44.697Z,102270.91
2023-02-11T13:05:49.731Z,102272.28
2023-02-11T13:08:56.124Z,102269.16
2023-02-11T13:12:22.686Z,102256.25
2023-02-11T13:15:25.826Z,102253.50
2023-02-11T13:18:40.096Z,102246.16
2023-02-11T13:21:54.040Z,102252.72
2023-02-11T13:25:03.875Z,102252.09
2023-02-11T13:28:20.471Z,102250.72
2023-02-11T13:31:26.724Z,102252.31
2023-02-11T13:34:56.582Z,102255.84
2023-02-11T13:37:59.914Z,102250.59
2023-02-11T13:41:04.371Z,102250.28
2023-02-11T13:44:26.563Z,102236.06
2023-02-11T13:47:31.384Z,102231.59
2023-02-11T13:50:39.375Z,102246.25
2023-02-11T13:53:46.754Z,102242.59
2023-02-11T13:57:29.241Z,102239.63
2023-02-11T14:00:51.438Z,102244.66
2023-02-11T14:04:44.050Z,102250.00
2023-02-11T14:09:02.775Z,102237.66
2023-02-11T14:12:24.628Z,102244.97
2023-02-11T14:15:27.655Z,102236.31
2023-02-11T14:18:59.554Z,102248.41
2023-02-11T14:22:02.645Z,102238.47
2023-02-11T14:25:16.102Z,102237.13
2023-02-11T14:28:25.872Z,102249.97
2023-02-11T14:31:35.421Z,102255.22
2023-02-11T14:34:51.430Z,102254.81
2023-02-11T14:38:01.802Z,102259.59
2023-02-11T14:41:07.440Z,102257.78
2023-02-11T14:44:16.749Z,102257.28
2023-02-11T14:47:21.119Z,102259.81
2023-02-11T14:50:27.297Z,102266.78
2023-02-11T14:53:31.755Z,102265.72
2023-02-11T14:56:34.427Z,102258.72
2023-02-11T14:59:36.320Z,102262.31
2023-02-11T15:02:39.011Z,102265.63
2023-02-11T15:05:42.091Z,102274.47
2023-02-11T15:08:46.819Z,102276.56
2023-02-11T15:11:50.884Z,102273.25
2023-02-11T15:14:55.467Z,102270.72
2023-02-11T15:18:01.418Z,102271.50
2023-02-11T15:21:05.640Z,102270.97
2023-02-11T15:24:24.253Z,102282.69
2023-02-11T15:27:26.087Z,102279.81
2023-02-11T15:30:31.549Z,102284.19
2023-02-11T15:33:33.345Z,102277.28
2023-02-11T15:36:38.512Z,102287.66
2023-02-11T15:39:41.489Z,102276.28
2023-02-11T15:42:55.098Z,102278.75
2023-02-11T15:46:01.611Z,102293.25
2023-02-11T15:49:03.922Z,102287.31
2023-02-11T15:52:08.229Z,102294.53
2023-02-11T15:55:14.393Z,102288.88
2023-02-11T15:58:16.006Z,102293.75
2023-02-11T16:01:17.967Z,102283.81
2023-02-11T16:04:21.900Z,102292.78
2023-02-11T16:07:44.073Z,102292.66
2023-02-11T16:10:54.817Z,102293.84
2023-02-11T16:13:59.036Z,102302.72
2023-02-11T16:17:05.562Z,102293.91
2023-02-11T16:20:18.192Z,102290.38
2023-02-11T16:23:25.378Z,102289.13
2023-02-11T16:26:31.747Z,102285.53
2023-02-11T16:29:36.458Z,102290.16
2023-02-11T16:32:38.521Z,102288.00
2023-02-11T16:35:40.412Z,102290.59
2023-02-11T16:38:43.580Z,102292.56
2023-02-11T16:41:45.306Z,102296.91
2023-02-11T16:44:47.038Z,102307.34
2023-02-11T16:47:48.688Z,102311.38
2023-02-11T16:50:53.429Z,102315.44
2023-02-11T16:53:56.612Z,102305.00
2023-02-11T16:56:58.578Z,102315.78
2023-02-11T17:00:00.306Z,102311.00
2023-02-11T17:03:05.559Z,102314.09
2023-02-11T17:06:09.295Z,102319.53
2023-02-11T17:09:17.095Z,102317.16
2023-02-11T17:12:18.874Z,102323.06
2023-02-11T17:15:20.550Z,102320.22
2023-02-11T17:18:22.227Z,102319.25
2023-02-11T17:21:27.117Z,102317.84
2023-02-11T17:24:32.047Z,102319.47
2023-02-11T17:27:34.356Z,102315.25
2023-02-11T17:30:36.057Z,102319.69
2023-02-11T17:33:37.875Z,102331.09
2023-02-11T17:36:41.288Z,102337.94
2023-02-11T17:39:44.787Z,102335.03
2023-02-11T17:42:46.548Z,102339.34
2023-02-11T17:45:48.340Z,102338.47
2023-02-11T17:48:50.653Z,102341.09
2023-02-11T17:51:52.279Z,102329.97
2023-02-11T17:54:55.511Z,102332.56
2023-02-11T17:57:57.161Z,102353.50
2023-02-11T18:00:59.304Z,102351.38
2023-02-11T18:04:01.214Z,102352.31
2023-02-11T18:07:02.998Z,102365.81
2023-02-11T18:10:08.359Z,102354.91
2023-02-11T18:13:10.026Z,102355.94
2023-02-11T18:16:15.574Z,102354.78
2023-02-11T18:19:18.824Z,102353.31
2023-02-11T18:22:20.548Z,102359.47
2023-02-11T18:25:23.645Z,102360.44
2023-02-11T18:28:25.432Z,102361.91
2023-02-11T18:31:27.659Z,102366.38
2023-02-11T18:34:29.514Z,102364.03
2023-02-11T18:37:31.192Z,102373.97
2023-02-11T18:40:34.377Z,102368.75
2023-02-11T18:43:39.345Z,102361.91
2023-02-11T18:46:41.064Z,102370.00
2023-02-11T18:49:42.776Z,102374.72
2023-02-11T18:52:44.460Z,102364.56
2023-02-11T18:55:48.218Z,102368.59
2023-02-11T18:58:51.375Z,102366.69
2023-02-11T19:01:53.152Z,102368.41
2023-02-11T19:04:54.828Z,102361.78
2023-02-11T19:07:56.987Z,102366.06
2023-02-11T19:11:00.104Z,102357.50
2023-02-11T19:14:09.970Z,102353.94
2023-02-11T19:17:13.270Z,102362.22
2023-02-11T19:20:15.073Z,102363.72
2023-02-11T19:23:16.722Z,102361.31
2023-02-11T19:26:23.497Z,102359.84
2023-02-11T19:29:25.483Z,102365.09
2023-02-11T19:32:27.139Z,102374.59
2023-02-11T19:35:28.897Z,102369.88
2023-02-11T19:38:30.736Z,102366.13
2023-02-11T19:41:34.457Z,102376.28
2023-02-11T19:44:36.248Z,102373.69
2023-02-11T19:47:38.137Z,102357.59
2023-02-11T19:50:39.906Z,102368.03
2023-02-11T19:53:41.812Z,102377.91
2023-02-11T19:56:45.235Z,102378.00
2023-02-11T19:59:46.865Z,102368.25
2023-02-11T20:02:48.670Z,102380.41
2023-02-11T20:05:50.660Z,102382.72
2023-02-11T20:08:57.169Z,102381.06
2023-02-11T20:12:01.360Z,102379.63
2023-02-11T20:15:03.314Z,102391.25
2023-02-11T20:18:05.157Z,102392.66
2023-02-11T20:21:07.659Z,102394.78
2023-02-11T20:24:09.442Z,102395.09
2023-02-11T20:27:12.845Z,102389.16
2023-02-11T20:30:15.075Z,102381.34
2023-02-11T20:33:16.778Z,102388.25
2023-02-11T20:36:20.617Z,102392.66
2023-02-11T20:39:23.932Z,102396.53
2023-02-11T20:42:27.529Z,102389.22
2023-02-11T20:45:29.275Z,102393.94
2023-02-11T20:48:31.656Z,102392.47
2023-02-11T20:51:34.754Z,102391.81
2023-02-11T20:54:36.760Z,102393.69
2023-02-11T20:57:39.825Z,102388.97
2023-02-11T21:00:41.488Z,102389.91
2023-02-11T21:03:44.139Z,102382.16
2023-02-11T21:06:47.954Z,102380.19
2023-02-11T21:09:49.594Z,102385.41
2023-02-11T21:12:52.859Z,102381.44
2023-02-11T21:15:55.838Z,102378.63
2023-02-11T21:18:58.044Z,102389.72
2023-02-11T21:22:00.916Z,102388.53
2023-02-11T21:25:02.643Z,102377.59
2023-02-11T21:28:05.954Z,102389.50
2023-02-11T21:31:08.520Z,102391.41
2023-02-11T21:34:10.622Z,102394.03
2023-02-11T21:37:12.331Z,102398.03
2023-02-11T21:40:14.854Z,102393.34
2023-02-11T21:43:18.196Z,102403.06
2023-02-11T21:46:20.458Z,102403.78
2023-02-11T21:49:22.237Z,102405.41
2023-02-11T21:52:24.163Z,102409.91
2023-02-11T21:55:25.825Z,102420.09
2023-02-11T21:58:28.825Z,102414.47
2023-02-11T22:01:32.207Z,102426.25
2023-02-11T22:04:33.908Z,102436.94
2023-02-11T22:07:35.613Z,102428.19
2023-02-11T22:10:37.322Z,102432.44
2023-02-11T22:13:41.673Z,102428.94
2023-02-11T22:16:45.019Z,102430.09
2023-02-11T22:19:46.691Z,102421.13
2023-02-11T22:22:48.442Z,102419.22
2023-02-11T22:25:50.067Z,102416.84
2023-02-11T22:28:53.801Z,102415.44
2023-02-11T22:31:55.594Z,102409.81
2023-02-11T22:34:57.330Z,102409.31
2023-02-11T22:37:59.012Z,102415.66
2023-02-11T22:41:06.064Z,102410.47
2023-02-11T22:44:09.754Z,102419.00
2023-02-11T22:47:11.404Z,102408.59
2023-02-11T22:50:13.024Z,102406.94
2023-02-11T22:53:14.666Z,102411.47
2023-02-11T22:56:16.371Z,102415.25
2023-02-11T22:59:20.183Z,102416.66
2023-02-11T23:02:22.044Z,102424.75
2023-02-11T23:05:23.871Z,102436.31
2023-02-11T23:08:26.567Z,102433.22
2023-02-11T23:11:30.457Z,102436.06
2023-02-11T23:14:33.500Z,102422.59
2023-02-11T23:17:35.276Z,102419.97
2023-02-11T23:20:37.621Z,102427.59
2023-02-11T23:23:39.856Z,102433.72
2023-02-11T23:26:43.414Z,102435.84
2023-02-11T23:29:46.408Z,102432.97
2023-02-11T23:32:48.304Z,102430.63
2023-02-11T23:35:49.979Z,102446.00
2023-02-11T23:38:51.688Z,102453.09
2023-02-11T23:41:58.830Z,102444.13
2023-02-11T23:45:01.808Z,102447.91
2023-02-11T23:48:03.658Z,102448.84
2023-02-11T23:51:06.333Z,102449.34
2023-02-11T23:54:10.457Z,102450.03
2023-02-11T23:57:12.115Z,102445.06
